Mazarn, Arkansas
Current Conditions -  °F | °C
As of 9:53 PM on Sunday 25 Jan 2015 (Local Time) from KHOT Reporting Station
Overcast Overcast  
Wind Chill:   Ceiling: 4300
Heat Index:   Visibility: 10mi
Dew Point:   Wind: 12mph
Humidity: 54%   Direction: 320°NW
Pressure: 30.02"   Gusts: 22mph
Location:  34.3467°N, 93.3187°W
Report Text: KHOT 260353Z AUTO 32010G19KT 290V350 10SM OVC043 09/00 A3002 RMK AO2 SLP163 T00890000
Loading
Personal Weather Stations






























Interactive Weather Map New forecast layout! Learn more

10-Day Weather Forecast

Advertisements
Track Severe Weather on mobile